sensor_id;sensor_type;location;lat;lon;timestamp;pressure;altitude;pressure_sealevel;temperature;humidity
51299;BME280;37382;45.192;9.790;2022-07-30T00:01:41;101052.91;;;21.33;100.00
51299;BME280;37382;45.192;9.790;2022-07-30T00:04:08;101053.09;;;21.27;100.00
51299;BME280;37382;45.192;9.790;2022-07-30T00:06:36;101051.88;;;21.45;100.00
51299;BME280;37382;45.192;9.790;2022-07-30T00:09:06;101052.47;;;21.47;100.00
51299;BME280;37382;45.192;9.790;2022-07-30T00:11:33;101041.63;;;21.40;100.00
51299;BME280;37382;45.192;9.790;2022-07-30T00:14:01;101044.00;;;21.59;100.00
51299;BME280;37382;45.192;9.790;2022-07-30T00:16:28;101049.38;;;21.43;100.00
51299;BME280;37382;45.192;9.790;2022-07-30T00:18:56;101049.03;;;21.35;100.00
51299;BME280;37382;45.192;9.790;2022-07-30T00:21:24;101052.22;;;21.48;100.00
51299;BME280;37382;45.192;9.790;2022-07-30T00:24:06;101050.69;;;21.36;100.00
51299;BME280;37382;45.192;9.790;2022-07-30T00:26:35;101048.06;;;21.19;100.00
51299;BME280;37382;45.192;9.790;2022-07-30T00:29:03;101055.00;;;21.21;100.00
51299;BME280;37382;45.192;9.790;2022-07-30T00:31:31;101045.06;;;21.25;100.00
51299;BME280;37382;45.192;9.790;2022-07-30T00:33:58;101051.53;;;21.36;100.00
51299;BME280;37382;45.192;9.790;2022-07-30T00:36:26;101057.16;;;21.46;100.00
51299;BME280;37382;45.192;9.790;2022-07-30T00:38:54;101049.91;;;21.40;100.00
51299;BME280;37382;45.192;9.790;2022-07-30T00:41:22;101051.63;;;21.46;100.00
51299;BME280;37382;45.192;9.790;2022-07-30T00:43:50;101047.38;;;21.61;100.00
51299;BME280;37382;45.192;9.790;2022-07-30T00:46:18;101050.59;;;21.53;100.00
51299;BME280;37382;45.192;9.790;2022-07-30T00:48:46;101052.13;;;21.38;100.00
51299;BME280;37382;45.192;9.790;2022-07-30T00:51:13;101051.50;;;21.31;100.00
51299;BME280;37382;45.192;9.790;2022-07-30T00:53:41;101057.84;;;21.04;100.00
51299;BME280;37382;45.192;9.790;2022-07-30T00:56:08;101058.13;;;21.03;100.00
51299;BME280;37382;45.192;9.790;2022-07-30T00:58:36;101059.75;;;21.26;100.00
51299;BME280;37382;45.192;9.790;2022-07-30T01:01:03;101061.63;;;21.47;100.00
51299;BME280;37382;45.192;9.790;2022-07-30T01:03:31;101058.59;;;21.22;100.00
51299;BME280;37382;45.192;9.790;2022-07-30T01:05:58;101054.81;;;21.06;100.00
51299;BME280;37382;45.192;9.790;2022-07-30T01:08:26;101066.75;;;21.06;100.00
51299;BME280;37382;45.192;9.790;2022-07-30T01:10:53;101057.94;;;20.87;100.00
51299;BME280;37382;45.192;9.790;2022-07-30T01:13:22;101065.25;;;20.71;100.00
51299;BME280;37382;45.192;9.790;2022-07-30T01:15:49;101051.72;;;20.75;100.00
51299;BME280;37382;45.192;9.790;2022-07-30T01:18:17;101060.53;;;20.72;100.00
51299;BME280;37382;45.192;9.790;2022-07-30T01:21:01;101058.13;;;20.58;100.00
51299;BME280;37382;45.192;9.790;2022-07-30T01:23:35;101055.97;;;20.83;100.00
51299;BME280;37382;45.192;9.790;2022-07-30T01:26:17;101055.66;;;20.79;100.00
51299;BME280;37382;45.192;9.790;2022-07-30T01:28:49;101057.38;;;20.85;100.00
51299;BME280;37382;45.192;9.790;2022-07-30T01:31:19;101050.06;;;21.01;100.00
51299;BME280;37382;45.192;9.790;2022-07-30T01:33:48;101045.81;;;20.66;100.00
51299;BME280;37382;45.192;9.790;2022-07-30T01:36:20;101046.25;;;20.58;100.00
51299;BME280;37382;45.192;9.790;2022-07-30T01:38:49;101044.72;;;20.67;100.00
51299;BME280;37382;45.192;9.790;2022-07-30T01:41:18;101040.09;;;20.73;100.00
51299;BME280;37382;45.192;9.790;2022-07-30T01:43:46;101038.25;;;20.61;100.00
51299;BME280;37382;45.192;9.790;2022-07-30T01:46:15;101034.00;;;20.71;100.00
51299;BME280;37382;45.192;9.790;2022-07-30T01:48:46;101034.34;;;20.57;100.00
51299;BME280;37382;45.192;9.790;2022-07-30T01:51:15;101027.63;;;20.48;100.00
51299;BME280;37382;45.192;9.790;2022-07-30T01:53:48;101028.56;;;20.59;100.00
51299;BME280;37382;45.192;9.790;2022-07-30T01:56:18;101035.97;;;20.53;100.00
51299;BME280;37382;45.192;9.790;2022-07-30T01:58:53;101028.75;;;20.52;100.00
51299;BME280;37382;45.192;9.790;2022-07-30T02:01:25;101045.66;;;20.34;100.00
51299;BME280;37382;45.192;9.790;2022-07-30T02:03:59;101047.25;;;20.30;100.00
51299;BME280;37382;45.192;9.790;2022-07-30T02:06:37;101051.00;;;20.40;100.00
51299;BME280;37382;45.192;9.790;2022-07-30T02:09:09;101053.06;;;20.50;100.00
51299;BME280;37382;45.192;9.790;2022-07-30T02:11:43;101053.31;;;20.49;100.00
51299;BME280;37382;45.192;9.790;2022-07-30T02:14:38;101046.34;;;20.46;100.00
51299;BME280;37382;45.192;9.790;2022-07-30T02:17:08;101051.88;;;20.46;100.00
51299;BME280;37382;45.192;9.790;2022-07-30T02:19:50;101051.84;;;20.41;100.00
51299;BME280;37382;45.192;9.790;2022-07-30T02:22:22;101042.50;;;20.47;100.00
51299;BME280;37382;45.192;9.790;2022-07-30T02:24:50;101046.69;;;20.27;100.00
51299;BME280;37382;45.192;9.790;2022-07-30T02:27:27;101049.38;;;20.22;100.00
51299;BME280;37382;45.192;9.790;2022-07-30T02:29:58;101046.34;;;20.24;100.00
51299;BME280;37382;45.192;9.790;2022-07-30T02:32:31;101052.78;;;20.30;100.00
51299;BME280;37382;45.192;9.790;2022-07-30T02:35:04;101050.75;;;20.42;100.00
51299;BME280;37382;45.192;9.790;2022-07-30T02:37:37;101057.41;;;20.24;100.00
51299;BME280;37382;45.192;9.790;2022-07-30T02:40:15;101053.53;;;20.25;100.00
51299;BME280;37382;45.192;9.790;2022-07-30T02:42:46;101053.78;;;20.40;100.00
51299;BME280;37382;45.192;9.790;2022-07-30T02:45:19;101045.75;;;20.39;100.00
51299;BME280;37382;45.192;9.790;2022-07-30T02:47:50;101052.72;;;20.24;100.00
51299;BME280;37382;45.192;9.790;2022-07-30T02:50:20;101054.38;;;20.25;100.00
51299;BME280;37382;45.192;9.790;2022-07-30T02:52:51;101052.06;;;20.17;100.00
51299;BME280;37382;45.192;9.790;2022-07-30T02:55:21;101049.53;;;20.16;100.00
51299;BME280;37382;45.192;9.790;2022-07-30T02:57:50;101046.53;;;20.17;100.00
51299;BME280;37382;45.192;9.790;2022-07-30T03:00:20;101046.97;;;20.09;100.00
51299;BME280;37382;45.192;9.790;2022-07-30T03:02:51;101044.69;;;20.23;100.00
51299;BME280;37382;45.192;9.790;2022-07-30T03:05:25;101047.53;;;20.11;100.00
51299;BME280;37382;45.192;9.790;2022-07-30T03:07:55;101045.03;;;20.09;100.00
51299;BME280;37382;45.192;9.790;2022-07-30T03:10:24;101043.63;;;20.07;100.00
51299;BME280;37382;45.192;9.790;2022-07-30T03:12:54;101044.47;;;20.07;100.00
51299;BME280;37382;45.192;9.790;2022-07-30T03:15:22;101037.88;;;19.91;100.00
51299;BME280;37382;45.192;9.790;2022-07-30T03:17:52;101031.25;;;19.93;100.00
51299;BME280;37382;45.192;9.790;2022-07-30T03:20:26;101033.09;;;20.04;100.00
51299;BME280;37382;45.192;9.790;2022-07-30T03:22:57;101034.53;;;19.89;100.00
51299;BME280;37382;45.192;9.790;2022-07-30T03:25:29;101038.47;;;19.94;100.00
51299;BME280;37382;45.192;9.790;2022-07-30T03:28:00;101033.72;;;20.11;100.00
51299;BME280;37382;45.192;9.790;2022-07-30T03:30:28;101028.88;;;20.18;100.00
51299;BME280;37382;45.192;9.790;2022-07-30T03:32:57;101028.41;;;20.04;100.00
51299;BME280;37382;45.192;9.790;2022-07-30T03:35:25;101031.41;;;20.03;100.00
51299;BME280;37382;45.192;9.790;2022-07-30T03:37:58;101030.09;;;20.05;100.00
51299;BME280;37382;45.192;9.790;2022-07-30T03:40:27;101032.03;;;20.27;100.00
51299;BME280;37382;45.192;9.790;2022-07-30T03:42:55;101037.66;;;20.15;100.00
51299;BME280;37382;45.192;9.790;2022-07-30T03:45:24;101032.59;;;20.29;100.00
51299;BME280;37382;45.192;9.790;2022-07-30T03:47:58;101030.03;;;20.22;100.00
51299;BME280;37382;45.192;9.790;2022-07-30T03:50:28;101024.13;;;20.14;100.00
51299;BME280;37382;45.192;9.790;2022-07-30T03:52:56;101023.19;;;20.08;100.00
51299;BME280;37382;45.192;9.790;2022-07-30T03:55:24;101017.09;;;20.06;100.00
51299;BME280;37382;45.192;9.790;2022-07-30T03:58:10;101022.31;;;20.02;100.00
51299;BME280;37382;45.192;9.790;2022-07-30T04:00:39;101023.38;;;20.01;100.00
51299;BME280;37382;45.192;9.790;2022-07-30T04:03:07;101032.34;;;19.91;100.00
51299;BME280;37382;45.192;9.790;2022-07-30T04:05:48;101031.41;;;20.03;100.00
51299;BME280;37382;45.192;9.790;2022-07-30T04:08:16;101027.91;;;20.07;100.00
51299;BME280;37382;45.192;9.790;2022-07-30T04:10:47;101033.31;;;20.19;100.00
51299;BME280;37382;45.192;9.790;2022-07-30T04:13:33;101035.47;;;20.17;100.00
51299;BME280;37382;45.192;9.790;2022-07-30T04:16:15;101035.66;;;20.11;100.00
51299;BME280;37382;45.192;9.790;2022-07-30T04:19:11;101041.44;;;20.09;100.00
51299;BME280;37382;45.192;9.790;2022-07-30T04:21:43;101036.38;;;20.01;100.00
51299;BME280;37382;45.192;9.790;2022-07-30T04:24:13;101045.38;;;20.13;100.00
51299;BME280;37382;45.192;9.790;2022-07-30T04:26:43;101042.28;;;20.09;100.00
51299;BME280;37382;45.192;9.790;2022-07-30T04:29:14;101039.69;;;20.42;100.00
51299;BME280;37382;45.192;9.790;2022-07-30T04:31:49;101045.91;;;20.32;100.00
51299;BME280;37382;45.192;9.790;2022-07-30T04:34:32;101055.47;;;20.24;100.00
51299;BME280;37382;45.192;9.790;2022-07-30T04:37:00;101065.19;;;20.27;100.00
51299;BME280;37382;45.192;9.790;2022-07-30T04:39:28;101054.66;;;20.24;100.00
51299;BME280;37382;45.192;9.790;2022-07-30T04:41:56;101048.47;;;20.17;100.00
51299;BME280;37382;45.192;9.790;2022-07-30T04:44:35;101056.28;;;20.25;100.00
51299;BME280;37382;45.192;9.790;2022-07-30T04:47:23;101062.44;;;20.27;100.00
51299;BME280;37382;45.192;9.790;2022-07-30T04:50:11;101061.94;;;20.13;100.00
51299;BME280;37382;45.192;9.790;2022-07-30T04:52:40;101069.69;;;20.33;100.00
51299;BME280;37382;45.192;9.790;2022-07-30T04:55:13;101070.72;;;20.27;100.00
51299;BME280;37382;45.192;9.790;2022-07-30T04:57:48;101077.28;;;20.04;100.00
51299;BME280;37382;45.192;9.790;2022-07-30T05:00:16;101073.94;;;20.02;100.00
51299;BME280;37382;45.192;9.790;2022-07-30T05:02:45;101077.28;;;19.87;100.00
51299;BME280;37382;45.192;9.790;2022-07-30T05:05:15;101079.69;;;20.00;100.00
51299;BME280;37382;45.192;9.790;2022-07-30T05:07:45;101072.34;;;20.06;100.00
51299;BME280;37382;45.192;9.790;2022-07-30T05:10:14;101072.91;;;20.47;100.00
51299;BME280;37382;45.192;9.790;2022-07-30T05:12:42;101064.50;;;20.59;100.00
51299;BME280;37382;45.192;9.790;2022-07-30T05:15:10;101077.31;;;20.26;100.00
51299;BME280;37382;45.192;9.790;2022-07-30T05:17:38;101076.38;;;20.37;100.00
51299;BME280;37382;45.192;9.790;2022-07-30T05:20:08;101076.97;;;20.39;100.00
51299;BME280;37382;45.192;9.790;2022-07-30T05:22:59;101079.16;;;20.37;100.00
51299;BME280;37382;45.192;9.790;2022-07-30T05:25:27;101083.16;;;20.69;100.00
51299;BME280;37382;45.192;9.790;2022-07-30T05:28:04;101081.16;;;20.42;100.00
51299;BME280;37382;45.192;9.790;2022-07-30T05:30:32;101083.59;;;20.60;100.00
51299;BME280;37382;45.192;9.790;2022-07-30T05:35:34;101084.34;;;20.73;100.00
51299;BME280;37382;45.192;9.790;2022-07-30T05:38:02;101086.06;;;20.79;100.00
51299;BME280;37382;45.192;9.790;2022-07-30T05:40:40;101087.03;;;20.90;100.00
51299;BME280;37382;45.192;9.790;2022-07-30T05:43:30;101088.78;;;21.01;100.00
51299;BME280;37382;45.192;9.790;2022-07-30T05:45:58;101085.69;;;20.92;100.00
51299;BME280;37382;45.192;9.790;2022-07-30T05:48:26;101082.28;;;20.85;100.00
51299;BME280;37382;45.192;9.790;2022-07-30T05:50:54;101085.09;;;20.90;100.00
51299;BME280;37382;45.192;9.790;2022-07-30T05:53:22;101080.50;;;20.74;100.00
51299;BME280;37382;45.192;9.790;2022-07-30T05:56:08;101081.38;;;20.79;100.00
51299;BME280;37382;45.192;9.790;2022-07-30T05:58:50;101084.38;;;21.00;100.00
51299;BME280;37382;45.192;9.790;2022-07-30T06:01:28;101087.97;;;21.01;100.00
51299;BME280;37382;45.192;9.790;2022-07-30T06:03:58;101090.91;;;21.16;100.00
51299;BME280;37382;45.192;9.790;2022-07-30T06:06:47;101086.53;;;21.20;100.00
51299;BME280;37382;45.192;9.790;2022-07-30T06:09:15;101093.81;;;21.31;100.00
51299;BME280;37382;45.192;9.790;2022-07-30T06:11:48;101084.19;;;21.61;100.00
51299;BME280;37382;45.192;9.790;2022-07-30T06:14:17;101086.47;;;21.70;100.00
51299;BME280;37382;45.192;9.790;2022-07-30T06:16:45;101092.44;;;21.89;100.00
51299;BME280;37382;45.192;9.790;2022-07-30T06:19:12;101094.16;;;22.00;100.00
51299;BME280;37382;45.192;9.790;2022-07-30T06:21:46;101094.78;;;22.45;100.00
51299;BME280;37382;45.192;9.790;2022-07-30T06:24:36;101101.00;;;22.67;100.00
51299;BME280;37382;45.192;9.790;2022-07-30T06:27:09;101101.50;;;22.59;100.00
51299;BME280;37382;45.192;9.790;2022-07-30T06:29:38;101110.09;;;22.58;100.00
51299;BME280;37382;45.192;9.790;2022-07-30T06:32:06;101114.66;;;22.84;100.00
51299;BME280;37382;45.192;9.790;2022-07-30T06:34:33;101114.63;;;22.79;100.00
51299;BME280;37382;45.192;9.790;2022-07-30T06:37:01;101113.31;;;22.97;100.00
51299;BME280;37382;45.192;9.790;2022-07-30T06:39:29;101124.81;;;22.63;100.00
51299;BME280;37382;45.192;9.790;2022-07-30T06:42:20;101121.78;;;22.65;100.00
51299;BME280;37382;45.192;9.790;2022-07-30T06:45:06;101121.50;;;22.71;100.00
51299;BME280;37382;45.192;9.790;2022-07-30T06:48:06;101123.25;;;22.83;100.00
51299;BME280;37382;45.192;9.790;2022-07-30T06:50:34;101123.81;;;22.85;100.00
51299;BME280;37382;45.192;9.790;2022-07-30T06:53:02;101110.94;;;23.32;100.00
51299;BME280;37382;45.192;9.790;2022-07-30T06:55:50;101125.06;;;23.15;100.00
51299;BME280;37382;45.192;9.790;2022-07-30T06:58:26;101123.84;;;22.95;100.00
51299;BME280;37382;45.192;9.790;2022-07-30T07:01:11;101123.47;;;22.71;100.00
51299;BME280;37382;45.192;9.790;2022-07-30T07:03:39;101116.56;;;22.79;100.00
51299;BME280;37382;45.192;9.790;2022-07-30T07:06:07;101118.84;;;22.92;100.00
51299;BME280;37382;45.192;9.790;2022-07-30T07:08:36;101115.63;;;23.31;100.00
51299;BME280;37382;45.192;9.790;2022-07-30T07:11:06;101114.84;;;23.36;100.00
51299;BME280;37382;45.192;9.790;2022-07-30T07:13:43;101118.47;;;23.47;100.00
51299;BME280;37382;45.192;9.790;2022-07-30T07:16:18;101119.25;;;23.26;100.00
51299;BME280;37382;45.192;9.790;2022-07-30T07:18:50;101117.59;;;23.31;100.00
51299;BME280;37382;45.192;9.790;2022-07-30T07:21:19;101110.13;;;23.57;100.00
51299;BME280;37382;45.192;9.790;2022-07-30T07:23:47;101111.25;;;23.66;100.00
51299;BME280;37382;45.192;9.790;2022-07-30T07:26:47;101118.50;;;23.72;100.00
51299;BME280;37382;45.192;9.790;2022-07-30T07:29:15;101114.56;;;23.48;100.00
51299;BME280;37382;45.192;9.790;2022-07-30T07:31:43;101112.63;;;23.53;100.00
51299;BME280;37382;45.192;9.790;2022-07-30T07:34:31;101114.56;;;23.63;100.00
51299;BME280;37382;45.192;9.790;2022-07-30T07:36:59;101114.88;;;23.51;100.00
51299;BME280;37382;45.192;9.790;2022-07-30T07:39:27;101112.34;;;23.39;100.00
51299;BME280;37382;45.192;9.790;2022-07-30T07:41:55;101114.59;;;23.53;100.00
51299;BME280;37382;45.192;9.790;2022-07-30T07:44:24;101131.44;;;23.20;100.00
51299;BME280;37382;45.192;9.790;2022-07-30T07:46:52;101120.97;;;23.53;100.00
51299;BME280;37382;45.192;9.790;2022-07-30T07:49:21;101118.22;;;23.74;100.00
51299;BME280;37382;45.192;9.790;2022-07-30T07:51:50;101122.63;;;23.59;100.00
51299;BME280;37382;45.192;9.790;2022-07-30T07:54:19;101129.88;;;23.81;100.00
51299;BME280;37382;45.192;9.790;2022-07-30T07:56:50;101119.31;;;23.68;100.00
51299;BME280;37382;45.192;9.790;2022-07-30T07:59:21;101129.28;;;23.53;100.00
51299;BME280;37382;45.192;9.790;2022-07-30T08:01:53;101125.72;;;23.78;100.00
51299;BME280;37382;45.192;9.790;2022-07-30T08:04:21;101128.50;;;23.89;100.00
51299;BME280;37382;45.192;9.790;2022-07-30T08:07:23;101129.63;;;23.72;100.00
51299;BME280;37382;45.192;9.790;2022-07-30T08:10:10;101124.63;;;24.10;100.00
51299;BME280;37382;45.192;9.790;2022-07-30T08:12:58;101134.34;;;24.23;100.00
51299;BME280;37382;45.192;9.790;2022-07-30T08:15:44;101119.91;;;23.95;100.00
51299;BME280;37382;45.192;9.790;2022-07-30T08:18:36;101116.28;;;24.05;100.00
51299;BME280;37382;45.192;9.790;2022-07-30T08:21:15;101123.50;;;23.75;100.00
51299;BME280;37382;45.192;9.790;2022-07-30T08:23:42;101124.91;;;24.09;100.00
51299;BME280;37382;45.192;9.790;2022-07-30T08:26:10;101122.91;;;23.73;100.00
51299;BME280;37382;45.192;9.790;2022-07-30T08:28:38;101117.38;;;24.20;100.00
51299;BME280;37382;45.192;9.790;2022-07-30T08:31:07;101117.06;;;24.31;100.00
51299;BME280;37382;45.192;9.790;2022-07-30T08:33:34;101121.81;;;24.31;100.00
51299;BME280;37382;45.192;9.790;2022-07-30T08:36:03;101117.59;;;24.44;100.00
51299;BME280;37382;45.192;9.790;2022-07-30T08:38:37;101121.28;;;24.19;100.00
51299;BME280;37382;45.192;9.790;2022-07-30T08:41:05;101124.84;;;24.50;100.00
51299;BME280;37382;45.192;9.790;2022-07-30T08:43:35;101123.69;;;24.51;100.00
51299;BME280;37382;45.192;9.790;2022-07-30T08:46:08;101132.09;;;24.30;100.00
51299;BME280;37382;45.192;9.790;2022-07-30T08:48:46;101120.63;;;24.63;100.00
51299;BME280;37382;45.192;9.790;2022-07-30T08:51:15;101125.59;;;24.76;100.00
51299;BME280;37382;45.192;9.790;2022-07-30T08:54:03;101124.75;;;24.76;100.00
51299;BME280;37382;45.192;9.790;2022-07-30T08:56:33;101130.09;;;24.67;100.00
51299;BME280;37382;45.192;9.790;2022-07-30T08:59:01;101121.81;;;25.12;100.00
51299;BME280;37382;45.192;9.790;2022-07-30T09:01:28;101114.44;;;25.42;100.00
51299;BME280;37382;45.192;9.790;2022-07-30T09:03:56;101133.06;;;24.91;100.00
51299;BME280;37382;45.192;9.790;2022-07-30T09:06:26;101133.97;;;24.76;100.00
51299;BME280;37382;45.192;9.790;2022-07-30T09:08:54;101122.31;;;24.59;100.00
51299;BME280;37382;45.192;9.790;2022-07-30T09:11:21;101122.41;;;25.53;100.00
51299;BME280;37382;45.192;9.790;2022-07-30T09:13:50;101128.78;;;25.59;100.00
51299;BME280;37382;45.192;9.790;2022-07-30T09:16:22;101119.78;;;25.28;100.00
51299;BME280;37382;45.192;9.790;2022-07-30T09:18:53;101130.56;;;25.45;100.00
51299;BME280;37382;45.192;9.790;2022-07-30T09:21:26;101120.88;;;25.37;100.00
51299;BME280;37382;45.192;9.790;2022-07-30T09:24:18;101108.97;;;25.66;100.00
51299;BME280;37382;45.192;9.790;2022-07-30T09:27:00;101121.06;;;25.85;100.00
51299;BME280;37382;45.192;9.790;2022-07-30T09:29:55;101121.47;;;25.24;100.00
51299;BME280;37382;45.192;9.790;2022-07-30T09:32:54;101120.31;;;25.74;100.00
51299;BME280;37382;45.192;9.790;2022-07-30T09:35:42;101112.91;;;25.94;100.00
51299;BME280;37382;45.192;9.790;2022-07-30T09:38:10;101123.94;;;25.75;100.00
51299;BME280;37382;45.192;9.790;2022-07-30T09:40:57;101122.16;;;25.50;100.00
51299;BME280;37382;45.192;9.790;2022-07-30T09:43:51;101118.19;;;25.96;100.00
51299;BME280;37382;45.192;9.790;2022-07-30T09:46:40;101115.69;;;25.99;100.00
51299;BME280;37382;45.192;9.790;2022-07-30T09:49:14;101121.53;;;25.98;100.00
51299;BME280;37382;45.192;9.790;2022-07-30T09:51:42;101099.19;;;26.03;100.00
51299;BME280;37382;45.192;9.790;2022-07-30T09:54:49;101107.94;;;26.20;100.00
51299;BME280;37382;45.192;9.790;2022-07-30T09:57:23;101104.88;;;25.87;100.00
51299;BME280;37382;45.192;9.790;2022-07-30T10:00:24;101115.19;;;25.52;100.00
51299;BME280;37382;45.192;9.790;2022-07-30T10:03:22;101115.06;;;26.07;100.00
51299;BME280;37382;45.192;9.790;2022-07-30T10:06:34;101115.00;;;25.78;100.00
51299;BME280;37382;45.192;9.790;2022-07-30T10:09:33;101108.81;;;26.45;100.00
51299;BME280;37382;45.192;9.790;2022-07-30T10:12:05;101103.66;;;26.82;100.00
51299;BME280;37382;45.192;9.790;2022-07-30T10:14:43;101113.34;;;26.89;100.00
51299;BME280;37382;45.192;9.790;2022-07-30T10:17:14;101113.84;;;26.91;100.00
51299;BME280;37382;45.192;9.790;2022-07-30T10:20:06;101110.16;;;26.77;100.00
51299;BME280;37382;45.192;9.790;2022-07-30T10:22:54;101112.81;;;26.34;100.00
51299;BME280;37382;45.192;9.790;2022-07-30T10:25:33;101104.88;;;26.46;100.00
51299;BME280;37382;45.192;9.790;2022-07-30T10:28:35;101095.88;;;26.78;100.00
51299;BME280;37382;45.192;9.790;2022-07-30T10:31:06;101094.00;;;26.74;100.00
51299;BME280;37382;45.192;9.790;2022-07-30T10:33:53;101090.19;;;27.27;100.00
51299;BME280;37382;45.192;9.790;2022-07-30T10:36:22;101090.53;;;27.01;100.00
51299;BME280;37382;45.192;9.790;2022-07-30T10:38:51;101089.03;;;27.09;100.00
51299;BME280;37382;45.192;9.790;2022-07-30T10:47:12;101076.44;;;27.49;100.00
51299;BME280;37382;45.192;9.790;2022-07-30T10:49:40;101084.44;;;26.99;100.00
51299;BME280;37382;45.192;9.790;2022-07-30T10:52:10;101087.16;;;27.04;100.00
51299;BME280;37382;45.192;9.790;2022-07-30T10:54:42;101087.56;;;27.16;100.00
51299;BME280;37382;45.192;9.790;2022-07-30T10:57:18;101076.16;;;27.51;100.00
51299;BME280;37382;45.192;9.790;2022-07-30T11:02:31;101075.03;;;27.52;100.00
51299;BME280;37382;45.192;9.790;2022-07-30T11:08:34;101082.28;;;27.53;100.00
51299;BME280;37382;45.192;9.790;2022-07-30T11:11:05;101070.75;;;28.07;100.00
51299;BME280;37382;45.192;9.790;2022-07-30T11:13:57;101070.06;;;28.70;100.00
51299;BME280;37382;45.192;9.790;2022-07-30T11:19:13;101066.69;;;27.99;100.00
51299;BME280;37382;45.192;9.790;2022-07-30T11:22:32;101076.25;;;28.53;100.00
51299;BME280;37382;45.192;9.790;2022-07-30T11:28:38;101065.50;;;28.74;100.00
51299;BME280;37382;45.192;9.790;2022-07-30T11:31:42;101059.66;;;29.35;90.36
51299;BME280;37382;45.192;9.790;2022-07-30T11:34:26;101073.47;;;28.81;89.16
51299;BME280;37382;45.192;9.790;2022-07-30T11:37:08;101069.22;;;28.84;88.07
51299;BME280;37382;45.192;9.790;2022-07-30T11:40:08;101069.47;;;29.10;96.06
51299;BME280;37382;45.192;9.790;2022-07-30T11:42:39;101061.91;;;29.10;98.56
51299;BME280;37382;45.192;9.790;2022-07-30T11:45:25;101063.16;;;29.41;98.21
51299;BME280;37382;45.192;9.790;2022-07-30T11:47:56;101056.63;;;29.99;94.42
51299;BME280;37382;45.192;9.790;2022-07-30T11:50:26;101059.28;;;29.51;84.30
51299;BME280;37382;45.192;9.790;2022-07-30T11:53:01;101052.09;;;30.12;87.49
51299;BME280;37382;45.192;9.790;2022-07-30T11:58:05;101046.28;;;30.09;90.39
51299;BME280;37382;45.192;9.790;2022-07-30T12:00:40;101043.78;;;29.98;91.76
51299;BME280;37382;45.192;9.790;2022-07-30T12:03:12;101039.72;;;30.13;88.03
51299;BME280;37382;45.192;9.790;2022-07-30T12:05:40;101041.25;;;30.20;88.37
51299;BME280;37382;45.192;9.790;2022-07-30T12:08:09;101036.34;;;29.94;79.54
51299;BME280;37382;45.192;9.790;2022-07-30T12:10:59;101035.91;;;30.49;74.06
51299;BME280;37382;45.192;9.790;2022-07-30T12:13:27;101031.44;;;30.40;77.42
51299;BME280;37382;45.192;9.790;2022-07-30T12:16:15;101031.19;;;30.27;77.95
51299;BME280;37382;45.192;9.790;2022-07-30T12:18:45;101041.41;;;30.72;72.54
51299;BME280;37382;45.192;9.790;2022-07-30T12:21:13;101040.50;;;30.05;71.74
51299;BME280;37382;45.192;9.790;2022-07-30T12:24:02;101032.00;;;30.28;69.40
51299;BME280;37382;45.192;9.790;2022-07-30T12:26:32;101029.91;;;31.17;66.27
51299;BME280;37382;45.192;9.790;2022-07-30T12:29:10;101024.09;;;31.57;64.46
51299;BME280;37382;45.192;9.790;2022-07-30T12:31:40;101022.88;;;31.85;61.68
51299;BME280;37382;45.192;9.790;2022-07-30T12:34:20;101025.19;;;30.51;67.80
51299;BME280;37382;45.192;9.790;2022-07-30T12:36:49;101023.78;;;30.98;62.63
51299;BME280;37382;45.192;9.790;2022-07-30T12:39:26;101039.66;;;31.11;61.33
51299;BME280;37382;45.192;9.790;2022-07-30T12:41:54;101029.75;;;31.31;59.95
51299;BME280;37382;45.192;9.790;2022-07-30T12:47:16;101028.41;;;31.02;62.00
51299;BME280;37382;45.192;9.790;2022-07-30T12:49:45;101022.91;;;30.71;63.31
51299;BME280;37382;45.192;9.790;2022-07-30T12:52:23;101014.56;;;31.88;57.51
51299;BME280;37382;45.192;9.790;2022-07-30T12:55:06;101006.13;;;32.36;57.09
51299;BME280;37382;45.192;9.790;2022-07-30T12:58:08;101002.53;;;32.26;54.81
51299;BME280;37382;45.192;9.790;2022-07-30T13:03:21;100997.97;;;31.57;55.98
51299;BME280;37382;45.192;9.790;2022-07-30T13:05:51;100997.88;;;31.92;55.06
51299;BME280;37382;45.192;9.790;2022-07-30T13:08:55;100993.03;;;32.70;53.92
51299;BME280;37382;45.192;9.790;2022-07-30T13:11:25;100995.28;;;31.78;51.77
51299;BME280;37382;45.192;9.790;2022-07-30T13:13:53;100985.88;;;31.65;52.57
51299;BME280;37382;45.192;9.790;2022-07-30T13:16:20;100992.56;;;31.99;52.61
51299;BME280;37382;45.192;9.790;2022-07-30T13:18:48;100988.97;;;32.79;47.16
51299;BME280;37382;45.192;9.790;2022-07-30T13:21:15;100980.78;;;32.36;43.50
51299;BME280;37382;45.192;9.790;2022-07-30T13:23:43;100979.47;;;32.84;42.89
51299;BME280;37382;45.192;9.790;2022-07-30T13:26:10;100979.75;;;32.70;43.68
51299;BME280;37382;45.192;9.790;2022-07-30T13:28:38;100971.69;;;33.57;41.73
51299;BME280;37382;45.192;9.790;2022-07-30T13:31:07;100974.34;;;33.41;40.82
51299;BME280;37382;45.192;9.790;2022-07-30T13:33:35;100984.72;;;32.64;40.47
51299;BME280;37382;45.192;9.790;2022-07-30T13:36:03;100969.28;;;33.92;38.82
51299;BME280;37382;45.192;9.790;2022-07-30T13:38:32;100970.22;;;33.38;38.92
51299;BME280;37382;45.192;9.790;2022-07-30T13:40:59;100964.59;;;34.21;37.98
51299;BME280;37382;45.192;9.790;2022-07-30T13:43:29;100953.53;;;34.03;41.28
51299;BME280;37382;45.192;9.790;2022-07-30T13:46:00;100959.53;;;34.39;35.98